sensor_id;sensor_type;location;lat;lon;timestamp;P1;durP1;ratioP1;P2;durP2;ratioP2
7585;SDS011;12459;42.646;23.292;2024-01-10T00:11:33;2.07;;;1.87;;
7585;SDS011;12459;42.646;23.292;2024-01-10T00:26:35;2.77;;;2.57;;
7585;SDS011;12459;42.646;23.292;2024-01-10T00:41:37;2.00;;;1.80;;
7585;SDS011;12459;42.646;23.292;2024-01-10T00:56:39;2.23;;;2.03;;
7585;SDS011;12459;42.646;23.292;2024-01-10T01:11:41;2.20;;;2.00;;
7585;SDS011;12459;42.646;23.292;2024-01-10T01:26:43;1.80;;;1.70;;
7585;SDS011;12459;42.646;23.292;2024-01-10T01:41:45;2.00;;;1.80;;
7585;SDS011;12459;42.646;23.292;2024-01-10T01:56:47;1.73;;;1.63;;
7585;SDS011;12459;42.646;23.292;2024-01-10T02:11:50;2.03;;;1.83;;
7585;SDS011;12459;42.646;23.292;2024-01-10T02:26:52;2.10;;;1.90;;
7585;SDS011;12459;42.646;23.292;2024-01-10T02:41:54;2.03;;;1.83;;
7585;SDS011;12459;42.646;23.292;2024-01-10T02:56:56;1.90;;;1.77;;
7585;SDS011;12459;42.646;23.292;2024-01-10T03:11:57;2.30;;;2.10;;
7585;SDS011;12459;42.646;23.292;2024-01-10T03:26:59;2.13;;;1.93;;
7585;SDS011;12459;42.646;23.292;2024-01-10T03:42:01;2.10;;;1.90;;
7585;SDS011;12459;42.646;23.292;2024-01-10T03:57:03;1.93;;;1.77;;
7585;SDS011;12459;42.646;23.292;2024-01-10T04:12:05;1.83;;;1.73;;
7585;SDS011;12459;42.646;23.292;2024-01-10T04:27:07;2.17;;;1.97;;
7585;SDS011;12459;42.646;23.292;2024-01-10T04:42:11;2.00;;;1.80;;
7585;SDS011;12459;42.646;23.292;2024-01-10T04:57:13;1.80;;;1.70;;
7585;SDS011;12459;42.646;23.292;2024-01-10T05:12:14;2.10;;;1.90;;
7585;SDS011;12459;42.646;23.292;2024-01-10T05:27:16;1.80;;;1.70;;
7585;SDS011;12459;42.646;23.292;2024-01-10T05:42:18;2.23;;;2.03;;
7585;SDS011;12459;42.646;23.292;2024-01-10T05:57:20;2.07;;;1.87;;
7585;SDS011;12459;42.646;23.292;2024-01-10T06:12:22;2.17;;;1.97;;
7585;SDS011;12459;42.646;23.292;2024-01-10T06:27:24;2.03;;;1.83;;
7585;SDS011;12459;42.646;23.292;2024-01-10T06:42:26;2.10;;;1.90;;
7585;SDS011;12459;42.646;23.292;2024-01-10T06:57:28;2.10;;;1.90;;
7585;SDS011;12459;42.646;23.292;2024-01-10T07:12:30;1.93;;;1.80;;
7585;SDS011;12459;42.646;23.292;2024-01-10T07:27:32;2.20;;;2.00;;
7585;SDS011;12459;42.646;23.292;2024-01-10T07:42:34;2.10;;;1.90;;
7585;SDS011;12459;42.646;23.292;2024-01-10T07:57:36;2.10;;;1.90;;
7585;SDS011;12459;42.646;23.292;2024-01-10T08:12:38;2.30;;;2.10;;
7585;SDS011;12459;42.646;23.292;2024-01-10T08:27:41;2.30;;;2.10;;
7585;SDS011;12459;42.646;23.292;2024-01-10T08:42:45;2.27;;;2.07;;
7585;SDS011;12459;42.646;23.292;2024-01-10T08:57:47;2.40;;;2.20;;
7585;SDS011;12459;42.646;23.292;2024-01-10T09:12:49;2.50;;;2.30;;
7585;SDS011;12459;42.646;23.292;2024-01-10T09:27:51;2.47;;;2.27;;
7585;SDS011;12459;42.646;23.292;2024-01-10T09:42:52;2.57;;;2.37;;
7585;SDS011;12459;42.646;23.292;2024-01-10T09:57:57;2.63;;;2.43;;
7585;SDS011;12459;42.646;23.292;2024-01-10T10:12:59;2.80;;;2.60;;
7585;SDS011;12459;42.646;23.292;2024-01-10T10:28:01;2.60;;;2.40;;
7585;SDS011;12459;42.646;23.292;2024-01-10T10:43:05;2.93;;;2.70;;
7585;SDS011;12459;42.646;23.292;2024-01-10T10:58:14;2.80;;;2.60;;
7585;SDS011;12459;42.646;23.292;2024-01-10T11:28:32;4.10;;;3.80;;
7585;SDS011;12459;42.646;23.292;2024-01-10T11:43:34;4.23;;;3.93;;
7585;SDS011;12459;42.646;23.292;2024-01-10T11:58:52;3.50;;;3.20;;
7585;SDS011;12459;42.646;23.292;2024-01-10T12:13:55;3.63;;;3.33;;
7585;SDS011;12459;42.646;23.292;2024-01-10T12:28:58;3.97;;;3.67;;
7585;SDS011;12459;42.646;23.292;2024-01-10T12:44:01;3.80;;;3.50;;
7585;SDS011;12459;42.646;23.292;2024-01-10T12:59:05;3.50;;;3.20;;
7585;SDS011;12459;42.646;23.292;2024-01-10T13:14:07;3.13;;;2.83;;
7585;SDS011;12459;42.646;23.292;2024-01-10T13:29:09;3.37;;;3.07;;
7585;SDS011;12459;42.646;23.292;2024-01-10T13:59:13;2.90;;;2.70;;
7585;SDS011;12459;42.646;23.292;2024-01-10T14:14:16;2.90;;;2.70;;
7585;SDS011;12459;42.646;23.292;2024-01-10T14:29:18;2.73;;;2.53;;
7585;SDS011;12459;42.646;23.292;2024-01-10T14:44:20;2.40;;;2.20;;
7585;SDS011;12459;42.646;23.292;2024-01-10T14:59:22;2.27;;;2.07;;
7585;SDS011;12459;42.646;23.292;2024-01-10T15:14:40;2.17;;;1.97;;
7585;SDS011;12459;42.646;23.292;2024-01-10T15:29:43;2.90;;;2.70;;
7585;SDS011;12459;42.646;23.292;2024-01-10T15:44:51;2.23;;;2.03;;
7585;SDS011;12459;42.646;23.292;2024-01-10T15:59:53;2.20;;;2.00;;
7585;SDS011;12459;42.646;23.292;2024-01-10T16:14:55;2.10;;;1.90;;
7585;SDS011;12459;42.646;23.292;2024-01-10T16:29:57;2.13;;;1.93;;
7585;SDS011;12459;42.646;23.292;2024-01-10T16:44:58;2.10;;;1.90;;
7585;SDS011;12459;42.646;23.292;2024-01-10T17:00:02;2.20;;;2.00;;
7585;SDS011;12459;42.646;23.292;2024-01-10T17:15:05;2.00;;;1.80;;
7585;SDS011;12459;42.646;23.292;2024-01-10T17:30:07;1.70;;;1.60;;
7585;SDS011;12459;42.646;23.292;2024-01-10T17:45:10;1.90;;;1.80;;
7585;SDS011;12459;42.646;23.292;2024-01-10T18:00:12;1.90;;;1.80;;
7585;SDS011;12459;42.646;23.292;2024-01-10T18:15:14;2.13;;;1.93;;
7585;SDS011;12459;42.646;23.292;2024-01-10T18:30:16;2.07;;;1.87;;
7585;SDS011;12459;42.646;23.292;2024-01-10T18:45:18;1.80;;;1.70;;
7585;SDS011;12459;42.646;23.292;2024-01-10T19:00:20;2.20;;;2.00;;
7585;SDS011;12459;42.646;23.292;2024-01-10T19:15:25;2.10;;;1.90;;
7585;SDS011;12459;42.646;23.292;2024-01-10T19:30:26;1.83;;;1.73;;
7585;SDS011;12459;42.646;23.292;2024-01-10T19:45:32;1.83;;;1.73;;
7585;SDS011;12459;42.646;23.292;2024-01-10T20:00:34;1.97;;;1.77;;
7585;SDS011;12459;42.646;23.292;2024-01-10T20:15:36;1.70;;;1.60;;
7585;SDS011;12459;42.646;23.292;2024-01-10T20:30:38;2.40;;;2.20;;
7585;SDS011;12459;42.646;23.292;2024-01-10T20:45:40;1.93;;;1.77;;
7585;SDS011;12459;42.646;23.292;2024-01-10T21:00:42;1.80;;;1.70;;
7585;SDS011;12459;42.646;23.292;2024-01-10T21:15:45;1.70;;;1.60;;
7585;SDS011;12459;42.646;23.292;2024-01-10T21:30:47;1.73;;;1.63;;
7585;SDS011;12459;42.646;23.292;2024-01-10T21:45:49;1.77;;;1.67;;
7585;SDS011;12459;42.646;23.292;2024-01-10T22:00:51;1.80;;;1.70;;
7585;SDS011;12459;42.646;23.292;2024-01-10T22:15:53;1.70;;;1.60;;
7585;SDS011;12459;42.646;23.292;2024-01-10T22:30:55;1.80;;;1.70;;
7585;SDS011;12459;42.646;23.292;2024-01-10T22:45:57;1.77;;;1.67;;
7585;SDS011;12459;42.646;23.292;2024-01-10T23:01:00;1.50;;;1.40;;
7585;SDS011;12459;42.646;23.292;2024-01-10T23:16:02;1.57;;;1.47;;
7585;SDS011;12459;42.646;23.292;2024-01-10T23:31:04;1.57;;;1.47;;
7585;SDS011;12459;42.646;23.292;2024-01-10T23:46:06;1.60;;;1.50;;
